createdAt,value
2022-10-12T00:01:52.991Z,7.70
2022-10-12T00:04:24.936Z,8.30
2022-10-12T00:06:56.733Z,5.72
2022-10-12T00:09:28.605Z,5.78
2022-10-12T00:12:00.521Z,5.50
2022-10-12T00:14:35.258Z,8.27
2022-10-12T00:17:07.212Z,7.43
2022-10-12T00:19:39.141Z,6.22
2022-10-12T00:22:11.074Z,4.50
2022-10-12T00:24:43.102Z,8.10
2022-10-12T00:27:15.101Z,8.00
2022-10-12T00:29:47.245Z,7.05
2022-10-12T00:32:19.131Z,5.10
2022-10-12T00:34:51.127Z,6.00
2022-10-12T00:37:23.066Z,9.77
2022-10-12T00:39:54.870Z,5.18
2022-10-12T00:42:26.726Z,6.78
2022-10-12T00:44:58.618Z,5.72
2022-10-12T00:47:37.347Z,7.00
2022-10-12T00:50:18.237Z,6.57
2022-10-12T00:52:55.737Z,6.65
2022-10-12T00:55:32.198Z,5.53
2022-10-12T00:58:07.109Z,6.55
2022-10-12T01:00:40.643Z,4.97
2022-10-12T01:03:18.127Z,10.15
2022-10-12T01:05:50.208Z,5.68
2022-10-12T01:08:22.706Z,5.72
2022-10-12T01:10:55.541Z,5.80
2022-10-12T01:13:27.625Z,4.68
2022-10-12T01:16:26.289Z,6.00
2022-10-12T01:19:39.411Z,8.63
2022-10-12T01:22:19.346Z,5.38
2022-10-12T01:25:08.428Z,7.50
2022-10-12T01:27:49.722Z,6.25
2022-10-12T01:33:25.525Z,6.93
2022-10-12T01:36:33.279Z,8.13
2022-10-12T01:39:13.339Z,7.47
2022-10-12T01:41:48.782Z,6.68
2022-10-12T01:44:22.042Z,8.68
2022-10-12T01:46:56.161Z,8.93
2022-10-12T01:49:33.446Z,6.30
2022-10-12T01:52:27.315Z,10.70
2022-10-12T01:55:22.315Z,4.05
2022-10-12T01:58:01.254Z,5.25
2022-10-12T02:00:42.958Z,5.63
2022-10-12T02:03:23.251Z,9.98
2022-10-12T02:05:58.228Z,5.93
2022-10-12T02:08:56.642Z,9.40
2022-10-12T02:11:29.412Z,11.00
2022-10-12T02:14:20.315Z,9.80
2022-10-12T02:16:56.286Z,6.30
2022-10-12T02:19:35.883Z,7.45
2022-10-12T02:22:09.754Z,8.65
2022-10-12T02:24:45.451Z,6.60
2022-10-12T02:27:20.440Z,6.00
2022-10-12T02:29:52.601Z,6.93
2022-10-12T02:32:35.390Z,10.88
2022-10-12T02:35:32.569Z,6.90
2022-10-12T02:38:12.050Z,6.88
2022-10-12T02:40:52.186Z,6.18
2022-10-12T02:43:27.695Z,9.05
2022-10-12T02:46:01.400Z,5.97
2022-10-12T02:48:35.463Z,9.63
2022-10-12T02:51:09.786Z,8.63
2022-10-12T02:53:41.994Z,9.50
2022-10-12T02:56:15.486Z,6.90
2022-10-12T02:58:47.911Z,6.13
2022-10-12T03:01:19.885Z,8.90
2022-10-12T03:03:51.754Z,8.50
2022-10-12T03:06:23.962Z,7.40
2022-10-12T03:08:57.177Z,7.13
2022-10-12T03:11:29.115Z,7.18
2022-10-12T03:14:01.111Z,6.20
2022-10-12T03:16:33.017Z,7.68
2022-10-12T03:19:04.955Z,8.32
2022-10-12T03:21:36.816Z,7.25
2022-10-12T03:24:08.861Z,6.32
2022-10-12T03:26:40.803Z,6.53
2022-10-12T03:29:12.737Z,9.70
2022-10-12T03:31:44.634Z,7.45
2022-10-12T03:34:16.455Z,6.25
2022-10-12T03:36:48.298Z,7.78
2022-10-12T03:39:20.130Z,7.15
2022-10-12T03:41:51.999Z,5.00
2022-10-12T03:44:23.942Z,7.93
2022-10-12T03:46:55.835Z,7.72
2022-10-12T03:49:27.776Z,5.93
2022-10-12T03:51:59.747Z,7.72
2022-10-12T03:54:31.899Z,5.90
2022-10-12T03:57:03.814Z,6.65
2022-10-12T03:59:35.681Z,7.60
2022-10-12T04:02:07.599Z,9.63
2022-10-12T04:04:39.457Z,6.18
2022-10-12T04:07:11.559Z,7.72
2022-10-12T04:09:43.583Z,15.13
2022-10-12T04:12:15.468Z,9.60
2022-10-12T04:14:47.340Z,12.07
2022-10-12T04:17:19.332Z,9.57
2022-10-12T04:19:51.322Z,4.68
2022-10-12T04:22:24.772Z,6.13
2022-10-12T04:24:56.837Z,7.25
2022-10-12T04:27:28.826Z,7.25
2022-10-12T04:30:00.650Z,5.63
2022-10-12T04:32:32.552Z,7.68
2022-10-12T04:35:04.696Z,8.20
2022-10-12T04:37:36.841Z,8.50
2022-10-12T04:40:09.358Z,7.30
2022-10-12T04:42:41.182Z,8.65
2022-10-12T04:45:13.132Z,5.97
2022-10-12T04:47:45.006Z,8.18
2022-10-12T04:50:17.138Z,8.00
2022-10-12T04:52:49.030Z,7.75
2022-10-12T04:55:20.931Z,10.13
2022-10-12T04:57:52.944Z,7.78
2022-10-12T05:00:24.854Z,11.02
2022-10-12T05:02:56.816Z,8.50
2022-10-12T05:05:28.621Z,10.57
2022-10-12T05:08:01.004Z,7.63
2022-10-12T05:10:32.978Z,8.75
2022-10-12T05:13:04.860Z,8.65
2022-10-12T05:15:36.897Z,7.85
2022-10-12T05:18:09.145Z,8.18
2022-10-12T05:20:41.098Z,23.95
2022-10-12T05:23:13.047Z,13.13
2022-10-12T05:25:44.922Z,19.40
2022-10-12T05:28:16.860Z,13.38
2022-10-12T05:30:52.705Z,13.73
2022-10-12T05:33:24.694Z,11.55
2022-10-12T05:35:56.789Z,10.52
2022-10-12T05:38:28.773Z,9.95
2022-10-12T05:41:01.111Z,12.13
2022-10-12T05:43:33.131Z,8.23
2022-10-12T05:46:05.119Z,13.65
2022-10-12T05:48:36.982Z,12.07
2022-10-12T05:51:08.855Z,10.32
2022-10-12T05:53:40.716Z,8.85
2022-10-12T05:56:12.625Z,11.20
2022-10-12T05:58:44.493Z,11.48
2022-10-12T06:01:16.604Z,10.95
2022-10-12T06:03:48.493Z,14.90
2022-10-12T06:06:20.655Z,11.18
2022-10-12T06:08:52.670Z,11.98
2022-10-12T06:11:24.797Z,11.63
2022-10-12T06:13:56.671Z,12.52
2022-10-12T06:16:28.624Z,14.93
2022-10-12T06:19:00.541Z,18.50
2022-10-12T06:21:34.014Z,11.38
2022-10-12T06:24:06.872Z,16.05
2022-10-12T06:26:38.819Z,11.75
2022-10-12T06:29:10.774Z,9.88
2022-10-12T06:31:44.697Z,12.55
2022-10-12T06:34:19.915Z,7.10
2022-10-12T06:36:52.318Z,14.63
2022-10-12T06:39:25.719Z,10.25
2022-10-12T06:41:57.644Z,12.48
2022-10-12T06:44:33.257Z,17.15
2022-10-12T06:47:05.126Z,17.02
2022-10-12T06:49:36.939Z,20.35
2022-10-12T06:52:08.860Z,10.95
2022-10-12T06:54:41.443Z,17.17
2022-10-12T06:57:13.286Z,12.50
2022-10-12T06:59:45.139Z,13.77
2022-10-12T07:02:17.023Z,17.08
2022-10-12T07:04:52.790Z,19.50
2022-10-12T07:07:24.806Z,16.50
2022-10-12T07:09:56.712Z,19.42
2022-10-12T07:12:28.619Z,33.65
2022-10-12T07:15:00.750Z,45.47
2022-10-12T07:17:32.899Z,27.33
2022-10-12T07:20:05.752Z,19.00
2022-10-12T07:22:37.695Z,15.73
2022-10-12T07:25:09.652Z,23.65
2022-10-12T07:27:42.048Z,13.00
2022-10-12T07:30:14.047Z,12.15
2022-10-12T07:32:47.046Z,11.25
2022-10-12T07:35:18.907Z,13.63
2022-10-12T07:37:50.867Z,8.32
2022-10-12T07:40:22.676Z,11.00
2022-10-12T07:43:14.903Z,11.35
2022-10-12T07:45:46.591Z,11.77
2022-10-12T07:48:18.458Z,9.27
2022-10-12T07:50:50.456Z,10.43
2022-10-12T07:53:22.504Z,9.60
2022-10-12T07:56:03.875Z,9.57
2022-10-12T07:58:35.763Z,9.40
2022-10-12T08:01:09.303Z,10.32
2022-10-12T08:03:41.279Z,12.35
2022-10-12T08:06:15.439Z,7.72
2022-10-12T08:08:47.959Z,12.77
2022-10-12T08:11:21.055Z,14.30
2022-10-12T08:13:53.194Z,11.52
2022-10-12T08:16:25.150Z,10.48
2022-10-12T08:18:57.031Z,11.27
2022-10-12T08:21:29.113Z,8.82
2022-10-12T08:24:01.029Z,12.18
2022-10-12T08:26:33.345Z,10.38
2022-10-12T08:29:06.664Z,9.90
2022-10-12T08:31:39.667Z,8.80
2022-10-12T08:34:11.578Z,11.10
2022-10-12T08:36:43.559Z,9.70
2022-10-12T08:39:17.768Z,12.75
2022-10-12T08:41:58.399Z,11.35
2022-10-12T08:44:48.348Z,8.10
2022-10-12T08:47:29.160Z,7.30
2022-10-12T08:52:41.640Z,16.10
2022-10-12T08:55:34.284Z,14.52
2022-10-12T08:58:16.984Z,9.95
2022-10-12T09:00:53.664Z,9.00
2022-10-12T09:03:39.857Z,9.48
2022-10-12T09:06:30.138Z,9.57
2022-10-12T09:09:29.554Z,11.73
2022-10-12T09:12:23.639Z,35.85
2022-10-12T09:15:01.524Z,20.05
2022-10-12T09:17:42.239Z,31.52
2022-10-12T09:20:28.185Z,27.83
2022-10-12T09:23:15.875Z,37.03
2022-10-12T09:25:48.004Z,22.17
2022-10-12T09:28:40.689Z,25.65
2022-10-12T09:31:51.939Z,15.25
2022-10-12T09:34:24.622Z,11.38
2022-10-12T09:36:56.607Z,11.55
2022-10-12T09:39:36.901Z,11.18
2022-10-12T09:42:11.317Z,16.13
2022-10-12T09:44:52.795Z,10.45
2022-10-12T09:47:31.352Z,7.75
2022-10-12T09:50:05.931Z,16.23
2022-10-12T09:52:42.989Z,15.07
2022-10-12T09:58:03.914Z,8.82
2022-10-12T10:00:35.921Z,7.88
2022-10-12T10:03:27.908Z,11.50
2022-10-12T10:06:04.234Z,6.78
2022-10-12T10:08:44.652Z,9.35
2022-10-12T10:11:21.470Z,11.07
2022-10-12T10:13:55.262Z,11.77
2022-10-12T10:16:29.231Z,9.10
2022-10-12T10:19:03.047Z,6.75
2022-10-12T10:21:38.279Z,12.30
2022-10-12T10:24:27.528Z,14.32
2022-10-12T10:27:04.703Z,8.68
2022-10-12T10:29:36.631Z,9.82
2022-10-12T10:32:24.437Z,8.48
2022-10-12T10:35:17.350Z,8.30
2022-10-12T10:37:55.706Z,9.50
2022-10-12T10:40:30.342Z,7.78
2022-10-12T10:43:16.250Z,7.65
2022-10-12T10:45:58.343Z,14.60
2022-10-12T10:48:37.320Z,6.18
2022-10-12T10:51:09.198Z,6.70
2022-10-12T10:53:47.976Z,7.63
2022-10-12T10:56:23.653Z,8.52
2022-10-12T10:59:09.807Z,8.18
2022-10-12T11:02:00.779Z,8.85
2022-10-12T11:07:27.754Z,13.48
2022-10-12T11:10:04.951Z,12.02
2022-10-12T11:12:43.427Z,8.95
2022-10-12T11:15:18.261Z,9.48
2022-10-12T11:17:57.142Z,8.82
2022-10-12T11:20:51.556Z,15.10
2022-10-12T11:23:53.882Z,10.50
2022-10-12T11:26:47.640Z,10.25
2022-10-12T11:29:19.992Z,10.35
2022-10-12T11:32:03.132Z,7.40
2022-10-12T11:34:52.734Z,15.00
2022-10-12T11:37:46.914Z,12.23
2022-10-12T11:40:47.902Z,15.02
2022-10-12T11:43:25.095Z,13.93
2022-10-12T11:46:03.025Z,8.77
2022-10-12T11:48:38.343Z,12.95
2022-10-12T11:51:11.634Z,10.35
2022-10-12T11:54:06.091Z,9.75
2022-10-12T11:56:47.133Z,11.88
2022-10-12T11:59:35.902Z,8.60
2022-10-12T12:02:41.537Z,10.80
2022-10-12T12:05:16.704Z,11.13
2022-10-12T12:07:51.713Z,10.43
2022-10-12T12:10:31.784Z,11.73
2022-10-12T12:13:13.067Z,10.82
2022-10-12T12:15:49.652Z,11.77
2022-10-12T12:18:28.227Z,11.23
2022-10-12T12:21:08.477Z,9.65
2022-10-12T12:23:53.653Z,11.05
2022-10-12T12:26:28.623Z,8.98
2022-10-12T12:29:19.707Z,9.02
2022-10-12T12:31:56.945Z,12.30
2022-10-12T12:34:29.487Z,11.05
2022-10-12T12:37:12.163Z,10.57
2022-10-12T12:39:45.018Z,10.32
2022-10-12T12:42:23.332Z,13.60
2022-10-12T12:44:55.228Z,9.23
2022-10-12T12:47:45.655Z,8.13
2022-10-12T12:50:33.253Z,11.45
2022-10-12T12:53:22.541Z,9.48
2022-10-12T12:56:05.603Z,10.85
2022-10-12T12:58:44.079Z,9.25
2022-10-12T13:01:34.423Z,11.98
2022-10-12T13:04:21.883Z,10.45
2022-10-12T13:07:27.739Z,7.13
2022-10-12T13:10:10.451Z,9.57
2022-10-12T13:12:56.117Z,9.65
2022-10-12T13:15:36.487Z,13.80
2022-10-12T13:18:47.018Z,9.85
2022-10-12T13:21:28.248Z,8.77
2022-10-12T13:24:14.508Z,13.15
2022-10-12T13:26:50.459Z,8.23
2022-10-12T13:29:36.869Z,12.07
2022-10-12T13:32:37.798Z,11.30
2022-10-12T13:38:22.818Z,9.73
2022-10-12T13:41:11.429Z,7.78
2022-10-12T13:43:50.371Z,9.25
2022-10-12T13:46:43.445Z,13.13
2022-10-12T13:49:25.565Z,6.10
2022-10-12T13:51:59.355Z,9.82
2022-10-12T13:54:40.071Z,9.13
2022-10-12T13:57:23.023Z,8.02
2022-10-12T14:00:15.175Z,9.80
2022-10-12T14:02:58.916Z,11.00
2022-10-12T14:05:33.199Z,10.35
2022-10-12T14:08:15.912Z,11.63
2022-10-12T14:10:49.470Z,9.52
2022-10-12T14:13:27.355Z,12.63
2022-10-12T14:16:01.427Z,7.75
2022-10-12T14:18:37.937Z,12.02
2022-10-12T14:21:25.440Z,8.88
2022-10-12T14:24:07.886Z,9.05
2022-10-12T14:26:43.490Z,9.55
2022-10-12T14:29:36.922Z,11.07
2022-10-12T14:32:11.521Z,9.77
2022-10-12T14:35:03.126Z,8.43
2022-10-12T14:37:34.999Z,19.08
2022-10-12T14:40:30.973Z,39.08
2022-10-12T14:43:08.124Z,20.23
2022-10-12T14:45:40.522Z,10.73
2022-10-12T14:48:20.512Z,14.82
2022-10-12T14:50:52.640Z,17.00
2022-10-12T14:53:29.153Z,11.35
2022-10-12T14:56:01.030Z,10.80
2022-10-12T14:58:32.850Z,9.35
2022-10-12T15:01:04.849Z,10.88
2022-10-12T15:03:38.678Z,11.38
2022-10-12T15:06:15.004Z,8.65
2022-10-12T15:08:46.962Z,11.63
2022-10-12T15:11:19.684Z,14.98
2022-10-12T15:13:51.542Z,9.57
2022-10-12T15:16:26.804Z,10.43
2022-10-12T15:18:58.888Z,13.27
2022-10-12T15:21:30.730Z,11.15
2022-10-12T15:24:02.595Z,12.35
2022-10-12T15:26:36.765Z,7.75
2022-10-12T15:29:10.687Z,9.52
2022-10-12T15:31:42.727Z,10.48
2022-10-12T15:34:15.448Z,7.05
2022-10-12T15:36:47.378Z,9.02
2022-10-12T15:39:19.501Z,7.93
2022-10-12T15:41:51.402Z,12.38
2022-10-12T15:44:23.430Z,13.50
2022-10-12T15:46:55.394Z,10.25
2022-10-12T15:49:27.326Z,10.95
2022-10-12T15:52:00.195Z,8.98
2022-10-12T15:54:32.114Z,5.53
2022-10-12T15:57:05.885Z,12.20
2022-10-12T15:59:38.125Z,10.88
2022-10-12T16:02:12.310Z,16.52
2022-10-12T16:04:44.413Z,16.63
2022-10-12T16:07:16.811Z,12.10
2022-10-12T16:09:49.169Z,14.57
2022-10-12T16:12:21.094Z,16.30
2022-10-12T16:14:53.422Z,17.50
2022-10-12T16:17:25.308Z,16.92
2022-10-12T16:19:57.128Z,15.77
2022-10-12T16:22:29.031Z,18.20
2022-10-12T16:25:01.528Z,18.17
2022-10-12T16:27:34.099Z,12.73
2022-10-12T16:30:08.285Z,10.05
2022-10-12T16:32:40.715Z,17.15
2022-10-12T16:35:14.147Z,12.85
2022-10-12T16:37:46.229Z,11.50
2022-10-12T16:40:18.473Z,17.80
2022-10-12T16:42:54.131Z,16.42
2022-10-12T16:45:26.249Z,14.38
2022-10-12T16:47:59.047Z,17.17
2022-10-12T16:50:31.062Z,14.93
2022-10-12T16:53:03.709Z,13.05
2022-10-12T16:55:37.822Z,14.63
2022-10-12T16:58:09.737Z,12.98
2022-10-12T17:00:43.355Z,31.15
2022-10-12T17:03:15.370Z,51.28
2022-10-12T17:05:47.233Z,35.15
2022-10-12T17:08:19.106Z,23.92
2022-10-12T17:10:50.971Z,19.40
2022-10-12T17:13:22.883Z,17.95
2022-10-12T17:15:59.314Z,11.10
2022-10-12T17:18:31.751Z,23.17
2022-10-12T17:21:03.776Z,15.13
2022-10-12T17:23:35.706Z,18.33
2022-10-12T17:26:07.672Z,17.60
2022-10-12T17:28:40.929Z,14.05
2022-10-12T17:31:13.000Z,15.55
2022-10-12T17:33:44.933Z,14.57
2022-10-12T17:36:18.873Z,19.80
2022-10-12T17:38:55.082Z,16.73
2022-10-12T17:41:28.738Z,18.25
2022-10-12T17:44:00.650Z,12.60
2022-10-12T17:46:32.569Z,15.02
2022-10-12T17:49:05.310Z,13.85
2022-10-12T17:51:37.233Z,17.65
2022-10-12T17:54:10.119Z,14.05
2022-10-12T17:56:43.219Z,16.75
2022-10-12T17:59:16.793Z,16.63
2022-10-12T18:01:50.268Z,16.65
2022-10-12T18:04:22.228Z,16.58
2022-10-12T18:06:54.055Z,15.55
2022-10-12T18:09:25.988Z,17.88
2022-10-12T18:11:57.886Z,14.65
2022-10-12T18:14:29.787Z,15.75
2022-10-12T18:17:01.678Z,18.02
2022-10-12T18:19:33.695Z,14.23
2022-10-12T18:22:05.624Z,16.00
2022-10-12T18:24:38.613Z,15.15
2022-10-12T18:27:10.440Z,13.05
2022-10-12T18:29:42.551Z,14.60
2022-10-12T18:32:14.384Z,15.23
2022-10-12T18:34:46.285Z,11.57
2022-10-12T18:37:18.232Z,15.23
2022-10-12T18:39:50.168Z,13.15
2022-10-12T18:42:21.994Z,16.83
2022-10-12T18:44:53.902Z,18.52
2022-10-12T18:47:25.782Z,14.57
2022-10-12T18:49:57.704Z,13.07
2022-10-12T18:52:29.705Z,15.43
2022-10-12T18:55:01.591Z,13.23
2022-10-12T18:57:37.664Z,15.73
2022-10-12T19:00:11.983Z,14.77
2022-10-12T19:02:43.924Z,19.27
2022-10-12T19:05:15.886Z,15.00
2022-10-12T19:07:47.703Z,19.70
2022-10-12T19:10:19.625Z,16.92
2022-10-12T19:12:51.456Z,14.50
2022-10-12T19:15:23.348Z,13.43
2022-10-12T19:17:55.335Z,10.07
2022-10-12T19:20:27.230Z,15.02
2022-10-12T19:22:59.211Z,16.90
2022-10-12T19:25:31.381Z,22.17
2022-10-12T19:28:03.959Z,17.77
2022-10-12T19:30:38.701Z,13.85
2022-10-12T19:33:10.977Z,16.88
2022-10-12T19:35:43.527Z,20.27
2022-10-12T19:38:15.590Z,19.73
2022-10-12T19:40:47.759Z,40.15
2022-10-12T19:43:19.674Z,21.67
2022-10-12T19:45:51.725Z,16.05
2022-10-12T19:48:23.798Z,15.37
2022-10-12T19:51:06.789Z,17.08
2022-10-12T19:53:40.011Z,11.32
2022-10-12T19:56:14.793Z,13.68
2022-10-12T19:58:47.845Z,17.60
2022-10-12T20:01:26.049Z,17.77
2022-10-12T20:03:58.419Z,20.60
2022-10-12T20:06:30.554Z,16.13
2022-10-12T20:09:04.460Z,12.27
2022-10-12T20:11:38.261Z,14.32
2022-10-12T20:14:10.825Z,16.05
2022-10-12T20:16:42.608Z,17.40
2022-10-12T20:19:14.515Z,11.75
2022-10-12T20:21:46.323Z,13.05
2022-10-12T20:24:18.207Z,13.07
2022-10-12T20:26:50.054Z,13.23
2022-10-12T20:29:21.948Z,17.65
2022-10-12T20:31:53.831Z,13.88
2022-10-12T20:34:25.801Z,20.88
2022-10-12T20:36:57.692Z,13.60
2022-10-12T20:39:29.595Z,15.20
2022-10-12T20:42:01.725Z,19.35
2022-10-12T20:44:33.583Z,15.30
2022-10-12T20:47:05.469Z,15.68
2022-10-12T20:49:37.408Z,20.10
2022-10-12T20:52:09.657Z,19.23
2022-10-12T20:54:41.567Z,16.20
2022-10-12T20:57:13.431Z,16.30
2022-10-12T20:59:48.873Z,16.65
2022-10-12T21:02:21.154Z,15.48
2022-10-12T21:04:53.196Z,17.50
2022-10-12T21:07:25.083Z,15.38
2022-10-12T21:09:56.954Z,13.93
2022-10-12T21:12:28.881Z,13.25
2022-10-12T21:15:00.703Z,10.07
2022-10-12T21:17:32.557Z,15.05
2022-10-12T21:20:05.067Z,13.00
2022-10-12T21:22:37.002Z,15.18
2022-10-12T21:25:09.107Z,16.67
2022-10-12T21:27:41.061Z,14.40
2022-10-12T21:30:13.039Z,16.40
2022-10-12T21:32:44.898Z,14.07
2022-10-12T21:35:16.747Z,15.23
2022-10-12T21:37:48.648Z,15.93
2022-10-12T21:40:20.661Z,13.38
2022-10-12T21:42:52.491Z,15.98
2022-10-12T21:45:24.410Z,14.45
2022-10-12T21:47:56.340Z,15.07
2022-10-12T21:50:28.390Z,17.00
2022-10-12T21:53:00.571Z,14.52
2022-10-12T21:55:33.355Z,17.08
2022-10-12T21:58:05.195Z,13.93
2022-10-12T22:00:37.123Z,17.52
2022-10-12T22:03:09.116Z,15.95
2022-10-12T22:05:44.890Z,16.63
2022-10-12T22:08:16.745Z,18.40
2022-10-12T22:10:48.653Z,16.83
2022-10-12T22:13:20.900Z,13.55
2022-10-12T22:16:04.338Z,14.93
2022-10-12T22:18:36.542Z,13.32
2022-10-12T22:21:13.075Z,14.98
2022-10-12T22:23:46.186Z,14.65
2022-10-12T22:26:21.181Z,16.33
2022-10-12T22:28:59.803Z,15.05
2022-10-12T22:31:31.849Z,13.90
2022-10-12T22:34:07.158Z,12.73
2022-10-12T22:36:41.415Z,19.02
2022-10-12T22:39:13.365Z,17.45
2022-10-12T22:41:49.039Z,15.50
2022-10-12T22:44:20.987Z,15.63
2022-10-12T22:46:54.923Z,11.57
2022-10-12T22:49:26.832Z,12.07
2022-10-12T22:51:58.798Z,15.68
2022-10-12T22:54:31.029Z,16.38
2022-10-12T22:57:02.894Z,20.58
2022-10-12T22:59:36.722Z,13.23
2022-10-12T23:02:08.519Z,15.30
2022-10-12T23:04:40.463Z,13.90
2022-10-12T23:07:12.300Z,13.68
2022-10-12T23:09:44.464Z,15.57
2022-10-12T23:12:16.695Z,12.57
2022-10-12T23:14:49.877Z,15.02
2022-10-12T23:17:21.790Z,15.75
2022-10-12T23:19:53.648Z,14.98
2022-10-12T23:22:25.590Z,14.57
2022-10-12T23:24:57.536Z,11.60
2022-10-12T23:27:29.459Z,13.35
2022-10-12T23:30:01.362Z,14.15
2022-10-12T23:32:33.282Z,17.50
2022-10-12T23:35:05.448Z,13.00
2022-10-12T23:37:40.872Z,13.02
2022-10-12T23:40:16.051Z,11.38
2022-10-12T23:42:47.943Z,14.27
2022-10-12T23:45:19.795Z,11.65
2022-10-12T23:47:52.253Z,11.95
2022-10-12T23:50:24.093Z,14.25
2022-10-12T23:52:56.007Z,14.43
2022-10-12T23:55:27.968Z,12.50
2022-10-12T23:57:59.908Z,12.18
